地図

経路データ

SID SEASON NUMBER BASIN SUBBASIN NAME ISO_TIME NATURE LAT LON WMO_WIND WMO_PRES WMO_AGENCY TRACK_TYPE DIST2LAND LANDFALL IFLAG USA_AGENCY USA_ATCF_ID USA_LAT USA_LON USA_RECORD USA_STATUS USA_WIND USA_PRES USA_SSHS USA_R34_NE USA_R34_SE USA_R34_SW USA_R34_NW USA_R50_NE USA_R50_SE USA_R50_SW USA_R50_NW USA_R64_NE USA_R64_SE USA_R64_SW USA_R64_NW USA_POCI USA_ROCI USA_RMW USA_EYE TOKYO_LAT TOKYO_LON TOKYO_GRADE TOKYO_WIND TOKYO_PRES TOKYO_R50_DIR TOKYO_R50_LONG TOKYO_R50_SHORT TOKYO_R30_DIR TOKYO_R30_LONG TOKYO_R30_SHORT TOKYO_LAND CMA_LAT CMA_LON CMA_CAT CMA_WIND CMA_PRES HKO_LAT HKO_LON HKO_CAT HKO_WIND HKO_PRES NEWDELHI_LAT NEWDELHI_LON NEWDELHI_GRADE NEWDELHI_WIND NEWDELHI_PRES NEWDELHI_CI NEWDELHI_DP NEWDELHI_POCI REUNION_LAT REUNION_LON REUNION_TYPE REUNION_WIND REUNION_PRES REUNION_TNUM REUNION_CI REUNION_RMW REUNION_R34_NE REUNION_R34_SE REUNION_R34_SW REUNION_R34_NW REUNION_R50_NE REUNION_R50_SE REUNION_R50_SW REUNION_R50_NW REUNION_R64_NE REUNION_R64_SE REUNION_R64_SW REUNION_R64_NW BOM_LAT BOM_LON BOM_TYPE BOM_WIND BOM_PRES BOM_TNUM BOM_CI BOM_RMW BOM_R34_NE BOM_R34_SE BOM_R34_SW BOM_R34_NW BOM_R50_NE BOM_R50_SE BOM_R50_SW BOM_R50_NW BOM_R64_NE BOM_R64_SE BOM_R64_SW BOM_R64_NW BOM_ROCI BOM_POCI BOM_EYE BOM_POS_METHOD BOM_PRES_METHOD NADI_LAT NADI_LON NADI_CAT NADI_WIND NADI_PRES WELLINGTON_LAT WELLINGTON_LON WELLINGTON_WIND WELLINGTON_PRES DS824_LAT DS824_LON DS824_STAGE DS824_WIND DS824_PRES TD9636_LAT TD9636_LON TD9636_STAGE TD9636_WIND TD9636_PRES TD9635_LAT TD9635_LON TD9635_WIND TD9635_PRES TD9635_ROCI NEUMANN_LAT NEUMANN_LON NEUMANN_CLASS NEUMANN_WIND NEUMANN_PRES MLC_LAT MLC_LON MLC_CLASS MLC_WIND MLC_PRES USA_GUST BOM_GUST BOM_GUST_PER REUNION_GUST REUNION_GUST_PER USA_SEAHGT USA_SEARAD_NE USA_SEARAD_SE USA_SEARAD_SW USA_SEARAD_NW STORM_SPEED STORM_DIR
1968155N13160 1968 31 WP MM NOT_NAMED 1968-06-03 06:00:00 TS 12.8000 160.000 main 2004 1988 __O___________ -1 12.8000 160.000 0 1006 7 267
1968155N13160 1968 31 WP MM NOT_NAMED 1968-06-03 09:00:00 TS 12.7826 159.660 main 1988 1969 __P___________ -1 12.7826 159.660 0 1008 7 270
1968155N13160 1968 31 WP MM NOT_NAMED 1968-06-03 12:00:00 TS 12.8000 159.300 main 1969 1953 __O___________ -1 12.8000 159.300 0 1010 7 277
1968155N13160 1968 31 WP MM NOT_NAMED 1968-06-03 15:00:00 TS 12.8775 158.908 main 1958 1948 __P___________ -1 12.8775 158.908 0 1010 8 284
1968155N13160 1968 31 WP MM NOT_NAMED 1968-06-03 18:00:00 TS 13.0000 158.500 main 1949 1939 __O___________ -1 13.0000 158.500 0 1010 8 288
1968155N13160 1968 31 WP MM NOT_NAMED 1968-06-03 21:00:00 TS 13.1349 158.107 main 1940 1937 __P___________ -1 13.1349 158.107 0 1010 8 291
1968155N13160 1968 31 WP MM NOT_NAMED 1968-06-04 00:00:00 TS 13.3000 157.700 main 1943 1939 __O___________ -1 13.3000 157.700 1 29 1010 9 293
1968155N13160 1968 31 WP MM NOT_NAMED 1968-06-04 03:00:00 TS 13.4773 157.280 main 1947 1939 __P___________ -1 13.4773 157.280 1 29 1010 10 295
1968155N13160 1968 31 WP MM NOT_NAMED 1968-06-04 06:00:00 TS 13.7000 156.800 main 1949 1945 __O___________ -1 13.7000 156.800 1 29 1010 11 297
1968155N13160 1968 31 WP MM NOT_NAMED 1968-06-04 09:00:00 TS 13.9924 156.238 main 1960 1956 __P___________ -1 13.9924 156.238 1 29 1010 13 297
1968155N13160 1968 31 WP MM NOT_NAMED 1968-06-04 12:00:00 TS 14.3000 155.600 main 1973 1970 __O___________ -1 14.3000 155.600 1 29 1010 14 294
1968155N13160 1968 31 WP MM NOT_NAMED 1968-06-04 15:00:00 TS 14.5497 154.937 main 1976 1976 __P___________ -1 14.5497 154.937 1 29 1010 14 290
1968155N13160 1968 31 WP MM NOT_NAMED 1968-06-04 18:00:00 TS 14.8000 154.200 main 1993 1991 __O___________ -1 14.8000 154.200 1 29 1010 16 290
1968155N13160 1968 31 WP MM NOT_NAMED 1968-06-04 21:00:00 TS 15.1077 153.343 main 2011 2010 __P___________ -1 15.1077 153.343 1 29 1009 18 290
1968155N13160 1968 31 WP MM NOT_NAMED 1968-06-05 00:00:00 TS 15.4000 152.500 main 2035 2034 __O___________ -1 15.4000 152.500 1 29 1008 15 289
1968155N13160 1968 31 WP MM NOT_NAMED 1968-06-05 03:00:00 TS 15.6144 151.827 main 2041 2038 __P___________ -1 15.6144 151.827 1 29 1008 13 288
1968155N13160 1968 31 WP MM NOT_NAMED 1968-06-05 06:00:00 TS 15.8000 151.200 main 2048 2046 __O___________ -1 15.8000 151.200 1 29 1008 13 287
1968155N13160 1968 31 WP MM NOT_NAMED 1968-06-05 09:00:00 TS 15.9922 150.522 main 2056 2052 __P___________ -1 15.9922 150.522 1 29 1007 14 287
1968155N13160 1968 31 WP MM NOT_NAMED 1968-06-05 12:00:00 TS 16.2000 149.800 main 2066 2064 __O___________ -1 16.2000 149.800 1 29 1006 16 284
1968155N13160 1968 31 WP MM NOT_NAMED 1968-06-05 15:00:00 TS 16.3831 148.932 main 2078 2077 __P___________ -1 16.3831 148.932 1 29 1005 16 288
1968155N13160 1968 31 WP MM NOT_NAMED 1968-06-05 18:00:00 TS 16.7000 148.200 main 2107 2107 __O___________ -1 16.7000 148.200 1 29 1004 14 311
1968155N13160 1968 31 WP MM NOT_NAMED 1968-06-05 21:00:00 TS 17.3120 147.830 main 2115 2045 __P___________ -1 17.3120 147.830 1 33 1003 14 336
1968155N13160 1968 31 WP MM NOT_NAMED 1968-06-06 00:00:00 TS 17.9333 147.633 main 2045 1982 O_O______O____ jtwc_wp WP301968 17.8000 147.500 TD -1 18.0000 147.700 2 38 1002 17.8000 147.500 TC 12 350
1968155N13160 1968 31 WP MM NOT_NAMED 1968-06-06 03:00:00 TS 18.5000 147.624 main 1982 1930 P_P______P____ WP301968 18.4650 147.577 TD -1 18.5674 147.685 2 38 1002 18.4000 147.550 TC 11 1
1968155N13160 1968 31 WP MM NOT_NAMED 1968-06-06 06:00:00 TS 19.0000 147.640 main 1930 1895 O_O______O____ jtwc_wp WP301968 19.0000 147.600 TD -1 19.0000 147.700 2 38 1002 19.0000 147.600 TC 8 354
1968155N13160 1968 31 WP MM NOT_NAMED 1968-06-06 09:00:00 TS 19.2660 147.541 main 1895 1881 P_P______P____ WP301968 19.3175 147.530 TD -1 19.2225 147.572 2 38 1004 19.2500 147.500 TC 5 333
1968155N13160 1968 31 WP MM NOT_NAMED 1968-06-06 12:00:00 TS 19.4500 147.400 main 1870 1842 O_O______O____ jtwc_wp WP301968 19.5000 147.400 TD -1 19.4000 147.400 2 38 1006 19.5000 147.400 TC 5 326
1968155N13160 1968 31 WP MM NOT_NAMED 1968-06-06 15:00:00 TS 19.6925 147.231 main 1842 1807 P_P___________ WP301968 19.6525 147.253 TD -1 19.7125 147.220 2 33 1006 TC 7 334
1968155N13160 1968 31 WP MM NOT_NAMED 1968-06-06 18:00:00 TS 20.0400 147.100 main 1807 1755 O_O___________ jtwc_wp WP301968 19.8000 147.100 TD -1 20.1000 147.100 1 29 1007 8 352
1968155N13160 1968 31 WP MM NOT_NAMED 1968-06-06 21:00:00 TS 20.5275 147.105 main 1755 1707 __P___________ WP301968 TD -1 20.5275 147.105 1 29 1007 10 6
1968155N13160 1968 31 WP MM NOT_NAMED 1968-06-07 00:00:00 TS 21.0000 147.200 main 1707 1660 __O___________ -1 21.0000 147.200 1 29 1008 10 12
1968155N13160 1968 31 WP MM NOT_NAMED 1968-06-07 03:00:00 TS 21.4925 147.320 main 1660 1618 __P___________ -1 21.4925 147.320 1 29 1008 10 16
1968155N13160 1968 31 WP MM NOT_NAMED 1968-06-07 06:00:00 TS 22.0000 147.500 main 1618 1577 __O___________ -1 22.0000 147.500 1 29 1008 11 21
1968155N13160 1968 31 WP MM NOT_NAMED 1968-06-07 09:00:00 TS 22.5000 147.735 main 1577 1542 __P___________ -1 22.5000 147.735 1 29 1008 11 25
1968155N13160 1968 31 WP MM NOT_NAMED 1968-06-07 12:00:00 TS 23.0000 148.000 main 1542 1503 __O___________ -1 23.0000 148.000 1 29 1008 11 24
1968155N13160 1968 31 WP MM NOT_NAMED 1968-06-07 15:00:00 TS 23.4998 148.228 main 1503 1472 __P___________ -1 23.4998 148.228 1 29 1009 11 25
1968155N13160 1968 31 WP MM NOT_NAMED 1968-06-07 18:00:00 TS 24.0000 148.500 main 1472 1440 __O___________ -1 24.0000 148.500 1 29 1010 12 29
1968155N13160 1968 31 WP MM NOT_NAMED 1968-06-07 21:00:00 TS 24.5298 148.855 main 1446 1416 __P___________ -1 24.5298 148.855 1 29 1010 12 36
1968155N13160 1968 31 WP MM NOT_NAMED 1968-06-08 00:00:00 TS 25.0000 149.300 main 1422 1412 __O___________ -1 25.0000 149.300 1 29 1010 12 46
1968155N13160 1968 31 WP MM NOT_NAMED 1968-06-08 03:00:00 TS 25.3521 149.798 main 1415 1415 __P___________ -1 25.3521 149.798 1 29 1010 12 59
1968155N13160 1968 31 WP MM NOT_NAMED 1968-06-08 06:00:00 TS 25.6000 150.400 main 1435 1435 __O___________ -1 25.6000 150.400 1 29 1010 13 71
1968155N13160 1968 31 WP MM NOT_NAMED 1968-06-08 09:00:00 TS 25.7653 151.135 main 1463 1463 __P___________ -1 25.7653 151.135 1 1011 14 77
1968155N13160 1968 31 WP MM NOT_NAMED 1968-06-08 12:00:00 TS 25.9000 151.900 main 1509 1509 __O___________ -1 25.9000 151.900 0 1012 13 76
1968155N13160 1968 31 WP MM NOT_NAMED 1968-06-08 15:00:00 TS 26.0922 152.580 main 1543 1543 __P___________ -1 26.0922 152.580 0 1012 12 71
1968155N13160 1968 31 WP MM NOT_NAMED 1968-06-08 18:00:00 TS 26.3000 153.200 main 1569 1569 __O___________ -1 26.3000 153.200 0 1012 11 70
1968155N13160 1968 31 WP MM NOT_NAMED 1968-06-08 21:00:00 TS 26.4766 153.728 main 1589 1589 __P___________ -1 26.4766 153.728 0 1012 11 68
1968155N13160 1968 31 WP MM NOT_NAMED 1968-06-09 00:00:00 ET 26.7000 154.300 main 1618 1618 __O___________ -1 26.7000 154.300 9 1012 13 64
1968155N13160 1968 31 WP MM NOT_NAMED 1968-06-09 03:00:00 ET 27.0421 155.032 main 1648 1648 __P___________ -1 27.0421 155.032 9 1012 16 64
1968155N13160 1968 31 WP MM NOT_NAMED 1968-06-09 06:00:00 ET 27.4000 155.900 main 1691 1691 __O___________ -1 27.4000 155.900 9 1012 17 69
1968155N13160 1968 31 WP MM NOT_NAMED 1968-06-09 09:00:00 ET 27.6722 156.863 main 1751 1751 __P___________ -1 27.6722 156.863 9 1012 18 74
1968155N13160 1968 31 WP MM NOT_NAMED 1968-06-09 12:00:00 ET 27.9000 157.900 main 1820 1820 __O___________ -1 27.9000 157.900 9 1012 19 76
1968155N13160 1968 31 WP MM NOT_NAMED 1968-06-09 15:00:00 ET 28.1217 158.935 main 1892 1892 __P___________ -1 28.1217 158.935 9 1012 19 78
1968155N13160 1968 31 WP MM NOT_NAMED 1968-06-09 18:00:00 ET 28.3000 160.000 main 1973 1973 __O___________ -1 28.3000 160.000 9 1012 19 82
1968155N13160 1968 31 WP MM NOT_NAMED 1968-06-09 21:00:00 ET 28.3835 161.064 main 2062 2062 __P___________ -1 28.3835 161.064 9 1012 19 84
1968155N13160 1968 31 WP MM NOT_NAMED 1968-06-10 00:00:00 ET 28.5000 162.200 main 2152 2152 __O___________ -1 28.5000 162.200 9 1012 22 80
1968155N13160 1968 31 WP MM NOT_NAMED 1968-06-10 03:00:00 ET 28.7629 163.500 main 2226 2226 __P___________ -1 28.7629 163.500 9 1012 24 75
1968155N13160 1968 31 WP MM NOT_NAMED 1968-06-10 06:00:00 ET 29.1000 164.800 main 2260 2260 __O___________ -1 29.1000 164.800 9 1012 22 73
1968155N13160 1968 31 WP MM NOT_NAMED 1968-06-10 09:00:00 ET 29.4096 165.887 main 2289 2289 __P___________ -1 29.4096 165.887 9 1012 20 70
1968155N13160 1968 31 WP MM NOT_NAMED 1968-06-10 12:00:00 ET 29.8000 167.000 main 2311 2307 __O___________ -1 29.8000 167.000 9 1012 23 66
1968155N13160 1968 31 WP MM NOT_NAMED 1968-06-10 15:00:00 ET 30.3576 168.361 main 2335 2335 __P___________ -1 30.3576 168.361 9 1012 27 66
1968155N13160 1968 31 WP MM NOT_NAMED 1968-06-10 18:00:00 ET 30.9000 169.800 main 2373 2373 __O___________ -1 30.9000 169.800 9 1012 26 70
1968155N13160 1968 31 WP MM NOT_NAMED 1968-06-10 21:00:00 ET 31.2438 171.174 main 2434 2426 __P___________ -1 31.2438 171.174 9 1014 24 75
1968155N13160 1968 31 WP MM NOT_NAMED 1968-06-11 00:00:00 ET 31.5000 172.500 main 2490 2490 __O___________ -1 31.5000 172.500 9 1016 23 77
1968155N13160 1968 31 WP MM NOT_NAMED 1968-06-11 03:00:00 ET 31.7558 173.766 main 2522 2522 __P___________ -1 31.7558 173.766 9 1016 22 77
1968155N13160 1968 31 WP MM NOT_NAMED 1968-06-11 06:00:00 ET 32.0000 175.000 main 2561 2561 __O___________ -1 32.0000 175.000 9 1016 22 77
1968155N13160 1968 31 WP MM NOT_NAMED 1968-06-11 09:00:00 ET 32.2502 176.243 main 2581 2518 __P___________ -1 32.2502 176.243 9 1016 22 77
1968155N13160 1968 31 WP MM NOT_NAMED 1968-06-11 12:00:00 ET 32.5000 177.500 main 2514 __O___________ -1 32.5000 177.500 9 1016 22 77

デジタル台風データ・検索

IBTrACS Databaseについて

本データベースは、米国NOAAが公開する1842年以降の世界の熱帯低気圧のベストトラックデータアーカイブInternational Best Track Archive for Climate Stewardship (IBTrACS)を、ウェブで閲覧しやすい形式に変換したものです。

最終更新日:2021-10-21